Time;durP1;ratioP1;P1;durP2;ratioP2;P2;SDS_P1;SDS_P2;PMS_P1;PMS_P2;Temp;Humidity;BMP_temperature;BMP_pressure;BME280_temperature;BME280_humidity;BME280_pressure;Samples;Min_cycle;Max_cycle;Signal;HPM_P1;HPM_P2
2021/11/30 14:05:10;;;;;;;2.05;0.80;;;;;;;;;;5152641;27;20815;-71
2021/11/30 14:07:39;;;;;;;1.42;0.60;;;;;;;;;;5131950;28;20049;-72
2021/11/30 14:10:16;;;;;;;1.35;0.57;;;;;;;;;;5131415;28;20110;-71
2021/11/30 14:12:42;;;;;;;1.35;0.80;;;;;;;;;;5113198;28;20026;-72
2021/11/30 14:15:12;;;;;;;1.10;0.55;;;;;;;;;;5113061;28;20024;-72
2021/11/30 14:17:39;;;;;;;2.63;0.70;;;;;;;;;;5131798;28;20047;-72
2021/11/30 14:20:16;;;;;;;3.47;0.88;;;;;;;;;;5112965;28;20492;-71
2021/11/30 14:22:43;;;;;;;1.33;0.32;;;;;;;;;;5131724;28;20046;-71
2021/11/30 14:25:22;;;;;;;1.25;0.50;;;;;;;;;;5131692;28;20054;-72
2021/11/30 14:27:53;;;;;;;0.70;0.40;;;;;;;;;;5131532;28;20020;-73
2021/11/30 14:30:21;;;;;;;1.35;0.50;;;;;;;;;;5131185;28;20023;-73
2021/11/30 14:33:00;;;;;;;1.25;0.65;;;;;;;;;;5131192;28;20023;-73
2021/11/30 14:35:28;;;;;;;2.05;0.63;;;;;;;;;;5131142;28;20028;-74
2021/11/30 14:37:54;;;;;;;4.70;1.48;;;;;;;;;;5112165;28;20479;-75
2021/11/30 14:40:21;;;;;;;3.47;1.50;;;;;;;;;;5112524;28;20114;-75
2021/11/30 14:43:02;;;;;;;2.55;1.15;;;;;;;;;;5131325;28;20070;-74
2021/11/30 14:45:43;;;;;;;2.20;1.10;;;;;;;;;;5130987;28;20027;-74
2021/11/30 14:48:18;;;;;;;2.03;1.20;;;;;;;;;;5112632;28;20019;-74
2021/11/30 14:50:46;;;;;;;3.35;1.60;;;;;;;;;;5112594;28;20027;-74
2021/11/30 14:53:12;;;;;;;2.67;1.50;;;;;;;;;;5112620;28;20364;-73
2021/11/30 14:55:43;;;;;;;2.33;1.48;;;;;;;;;;5112543;28;20102;-73
2021/11/30 14:58:20;;;;;;;2.88;1.50;;;;;;;;;;5112518;28;20459;-74
2021/11/30 15:00:50;;;;;;;2.58;1.50;;;;;;;;;;5112452;28;20110;-74
2021/11/30 15:03:17;;;;;;;2.90;1.65;;;;;;;;;;5108561;28;20079;-73
2021/11/30 15:05:46;;;;;;;3.85;1.10;;;;;;;;;;5110187;28;20460;-73
2021/11/30 15:08:25;;;;;;;3.15;1.10;;;;;;;;;;5108866;28;20054;-75
2021/11/30 15:10:59;;;;;;;2.53;1.30;;;;;;;;;;5108964;28;20106;-75
2021/11/30 15:13:25;;;;;;;;;;;;;;;;;;5109241;28;20019;-73
2021/11/30 15:15:52;;;;;;;1.85;0.90;;;;;;;;;;5098514;28;20356;-74
2021/11/30 15:18:19;;;;;;;2.17;1.10;;;;;;;;;;5095163;28;20387;-75
2021/11/30 15:20:45;;;;;;;4.63;1.08;;;;;;;;;;5096412;28;20170;-75
2021/11/30 15:23:11;;;;;;;4.93;1.23;;;;;;;;;;5096225;28;20032;-73
2021/11/30 15:25:37;;;;;;;3.00;1.20;;;;;;;;;;5095069;28;20114;-73
2021/11/30 15:28:04;;;;;;;4.03;1.20;;;;;;;;;;5078219;28;20115;-74
2021/11/30 15:30:30;;;;;;;2.25;1.00;;;;;;;;;;5094922;28;20115;-74
2021/11/30 15:32:56;;;;;;;2.78;1.15;;;;;;;;;;5096066;28;20028;-73
2021/11/30 15:35:22;;;;;;;1.48;0.80;;;;;;;;;;5096090;28;20056;-74
2021/11/30 15:37:50;;;;;;;1.85;0.95;;;;;;;;;;5095998;28;20042;-74
2021/11/30 15:40:17;;;;;;;2.88;1.08;;;;;;;;;;5094689;28;20074;-74
2021/11/30 15:42:44;;;;;;;1.77;1.00;;;;;;;;;;5095884;28;20357;-74
2021/11/30 15:45:10;;;;;;;3.78;1.40;;;;;;;;;;5095940;28;20473;-74
2021/11/30 15:47:39;;;;;;;1.25;0.68;;;;;;;;;;5094560;28;20152;-74
2021/11/30 15:50:05;;;;;;;1.40;0.70;;;;;;;;;;5094550;28;20031;-74
2021/11/30 15:52:36;;;;;;;1.58;0.80;;;;;;;;;;5096003;28;20031;-72
2021/11/30 15:55:12;;;;;;;2.28;1.00;;;;;;;;;;5096362;28;20377;-74
2021/11/30 15:57:38;;;;;;;2.90;1.13;;;;;;;;;;5094447;28;20028;-74
2021/11/30 16:00:07;;;;;;;2.15;1.23;;;;;;;;;;5094353;28;20024;-74
2021/11/30 16:02:34;;;;;;;2.40;0.98;;;;;;;;;;5094298;28;20063;-74
2021/11/30 16:05:03;;;;;;;2.42;1.27;;;;;;;;;;5093993;28;20081;-75
2021/11/30 16:07:30;;;;;;;2.78;1.58;;;;;;;;;;5094194;28;20468;-73
2021/11/30 16:09:57;;;;;;;2.88;1.33;;;;;;;;;;5095395;28;20064;-74
2021/11/30 16:12:23;;;;;;;5.13;1.95;;;;;;;;;;5094093;28;20077;-74
2021/11/30 16:14:50;;;;;;;2.50;1.55;;;;;;;;;;5094029;28;20032;-73
2021/11/30 16:17:16;;;;;;;2.22;1.20;;;;;;;;;;5095813;28;20035;-74
2021/11/30 16:19:43;;;;;;;2.75;1.25;;;;;;;;;;5095262;28;20077;-73
2021/11/30 16:22:09;;;;;;;2.97;1.15;;;;;;;;;;5093882;28;20028;-75
2021/11/30 16:24:36;;;;;;;3.25;1.23;;;;;;;;;;5095637;28;20040;-74
2021/11/30 16:27:03;;;;;;;2.50;1.15;;;;;;;;;;5092877;28;20153;-75
2021/11/30 16:29:30;;;;;;;2.65;1.17;;;;;;;;;;5095636;28;20046;-74
2021/11/30 16:31:56;;;;;;;2.67;1.60;;;;;;;;;;5089477;28;20051;-73
2021/11/30 16:34:23;;;;;;;2.80;1.42;;;;;;;;;;5081835;28;20366;-72
2021/11/30 16:36:50;;;;;;;3.20;1.77;;;;;;;;;;5092298;28;20020;-73
2021/11/30 16:39:21;;;;;;;4.03;1.52;;;;;;;;;;5094657;28;20075;-72
2021/11/30 16:41:47;;;;;;;8.00;1.67;;;;;;;;;;5095109;28;20020;-72
2021/11/30 16:44:14;;;;;;;2.58;1.42;;;;;;;;;;5094586;28;20032;-72
2021/11/30 16:46:41;;;;;;;2.28;1.30;;;;;;;;;;5094574;28;20024;-73
2021/11/30 16:49:10;;;;;;;3.17;1.60;;;;;;;;;;5093302;28;20032;-73
2021/11/30 16:51:36;;;;;;;2.00;1.30;;;;;;;;;;5093154;28;20020;-73
2021/11/30 16:54:13;;;;;;;5.75;1.67;;;;;;;;;;5093225;28;20035;-73
2021/11/30 16:56:42;;;;;;;2.53;1.65;;;;;;;;;;5094607;28;20020;-72
2021/11/30 16:59:09;;;;;;;3.50;1.90;;;;;;;;;;5076393;28;20030;-73
2021/11/30 17:01:36;;;;;;;3.05;1.75;;;;;;;;;;5094700;28;20498;-73
2021/11/30 17:04:02;;;;;;;3.10;1.65;;;;;;;;;;5092796;28;20052;-72
2021/11/30 17:06:28;;;;;;;3.53;1.70;;;;;;;;;;5092974;28;20024;-73
2021/11/30 17:08:55;;;;;;;3.67;1.98;;;;;;;;;;5092847;28;20032;-72
2021/11/30 17:11:22;;;;;;;2.85;1.40;;;;;;;;;;5094251;28;20047;-73
2021/11/30 17:13:48;;;;;;;3.90;1.90;;;;;;;;;;5092842;28;20024;-73
2021/11/30 17:16:19;;;;;;;4.70;2.30;;;;;;;;;;5094127;28;20024;-73
2021/11/30 17:18:45;;;;;;;3.65;1.88;;;;;;;;;;5094083;28;20103;-73
2021/11/30 17:21:11;;;;;;;3.67;2.05;;;;;;;;;;5093960;28;20031;-73
2021/11/30 17:23:44;;;;;;;4.32;1.65;;;;;;;;;;5092679;28;20169;-72
2021/11/30 17:26:10;;;;;;;2.75;1.67;;;;;;;;;;5092735;28;20051;-73
2021/11/30 17:28:36;;;;;;;3.15;1.70;;;;;;;;;;5092470;28;20039;-73
2021/11/30 17:31:03;;;;;;;4.28;2.47;;;;;;;;;;5094269;28;20051;-73
2021/11/30 17:33:29;;;;;;;6.30;3.05;;;;;;;;;;5093830;28;20028;-72
2021/11/30 17:35:55;;;;;;;7.05;3.42;;;;;;;;;;5092549;28;20024;-72
2021/11/30 17:38:21;;;;;;;11.27;4.07;;;;;;;;;;5092224;28;20107;-73
2021/11/30 17:40:47;;;;;;;8.30;3.13;;;;;;;;;;5092351;28;20464;-72
2021/11/30 17:43:15;;;;;;;9.90;4.30;;;;;;;;;;5092323;28;20454;-73
2021/11/30 17:45:44;;;;;;;9.95;4.10;;;;;;;;;;5092412;28;20034;-73
2021/11/30 17:48:10;;;;;;;15.43;4.18;;;;;;;;;;5093770;28;20074;-73
2021/11/30 17:50:36;;;;;;;13.38;4.18;;;;;;;;;;5092091;28;20119;-73
2021/11/30 17:53:03;;;;;;;9.60;3.22;;;;;;;;;;5092276;28;20472;-73
2021/11/30 17:55:29;;;;;;;23.52;8.65;;;;;;;;;;5092237;28;20024;-74
2021/11/30 17:57:55;;;;;;;31.13;9.95;;;;;;;;;;5092100;28;20024;-73
2021/11/30 18:00:23;;;;;;;32.83;9.77;;;;;;;;;;5093432;28;20431;-74
2021/11/30 18:02:50;;;;;;;8.93;3.20;;;;;;;;;;5092321;28;20031;-73
2021/11/30 18:05:18;;;;;;;8.27;2.58;;;;;;;;;;5095553;28;20039;-73
2021/11/30 18:07:45;;;;;;;4.40;2.15;;;;;;;;;;5095488;28;20047;-74
2021/11/30 18:10:12;;;;;;;2.50;1.60;;;;;;;;;;5095482;28;20023;-74
2021/11/30 18:12:38;;;;;;;3.35;2.10;;;;;;;;;;5095313;28;20046;-73
2021/11/30 18:15:04;;;;;;;3.45;1.85;;;;;;;;;;5095347;28;20020;-73
2021/11/30 18:17:31;;;;;;;7.30;2.92;;;;;;;;;;5095446;28;20110;-74
2021/11/30 18:19:57;;;;;;;8.70;3.15;;;;;;;;;;5095382;28;20028;-74
2021/11/30 18:22:23;;;;;;;2.95;1.60;;;;;;;;;;5113804;28;20024;-74
2021/11/30 18:24:50;;;;;;;3.85;1.30;;;;;;;;;;5113516;28;20433;-74
2021/11/30 18:27:18;;;;;;;3.22;1.38;;;;;;;;;;5095308;28;20024;-74
2021/11/30 18:29:45;;;;;;;3.92;1.40;;;;;;;;;;5113881;28;20073;-73
2021/11/30 18:32:12;;;;;;;2.80;1.50;;;;;;;;;;5095322;28;20052;-73
2021/11/30 18:34:39;;;;;;;2.85;1.50;;;;;;;;;;5095223;28;20019;-74
2021/11/30 18:37:06;;;;;;;3.72;1.88;;;;;;;;;;5095849;28;20027;-74
2021/11/30 18:39:32;;;;;;;3.05;1.80;;;;;;;;;;5095253;28;20022;-74
2021/11/30 18:41:58;;;;;;;2.80;1.65;;;;;;;;;;5095191;28;20023;-74
2021/11/30 18:44:25;;;;;;;3.03;1.75;;;;;;;;;;5095022;28;20035;-73
2021/11/30 18:46:51;;;;;;;4.43;1.92;;;;;;;;;;5095036;28;20077;-73
2021/11/30 18:49:18;;;;;;;3.30;1.73;;;;;;;;;;5095105;28;20031;-74
2021/11/30 18:51:44;;;;;;;6.47;1.80;;;;;;;;;;5098596;28;20051;-74
2021/11/30 18:54:11;;;;;;;3.08;1.80;;;;;;;;;;5098927;28;20028;-73
2021/11/30 18:56:38;;;;;;;2.63;1.70;;;;;;;;;;5116985;28;20019;-73
2021/11/30 18:59:04;;;;;;;3.03;1.70;;;;;;;;;;5117085;28;20028;-73
2021/11/30 19:01:31;;;;;;;3.08;1.80;;;;;;;;;;5098732;28;20114;-73
2021/11/30 19:03:57;;;;;;;2.80;1.52;;;;;;;;;;5094927;28;20052;-73
2021/11/30 19:06:24;;;;;;;2.53;1.50;;;;;;;;;;5096598;28;20069;-74
2021/11/30 19:08:50;;;;;;;3.88;1.40;;;;;;;;;;5095116;28;20156;-73
2021/11/30 19:11:16;;;;;;;2.33;1.52;;;;;;;;;;5088365;28;20020;-73
2021/11/30 19:13:43;;;;;;;3.85;1.65;;;;;;;;;;5074534;28;20020;-73
2021/11/30 19:16:09;;;;;;;2.85;1.70;;;;;;;;;;5074624;28;20032;-73
2021/11/30 19:18:35;;;;;;;2.58;1.58;;;;;;;;;;5074512;28;20031;-73
2021/11/30 19:21:01;;;;;;;2.38;1.45;;;;;;;;;;5074772;28;20480;-73
2021/11/30 19:23:27;;;;;;;2.58;1.58;;;;;;;;;;5074747;28;20075;-73
2021/11/30 19:25:54;;;;;;;1.95;1.17;;;;;;;;;;5074584;28;20024;-72
2021/11/30 19:28:20;;;;;;;3.15;1.60;;;;;;;;;;5084466;28;20149;-73
2021/11/30 19:30:48;;;;;;;3.20;2.00;;;;;;;;;;5096158;28;20491;-73
2021/11/30 19:33:14;;;;;;;4.00;2.22;;;;;;;;;;5096330;28;20024;-73
2021/11/30 19:35:41;;;;;;;4.05;2.13;;;;;;;;;;5096216;28;20475;-74
2021/11/30 19:38:09;;;;;;;4.07;2.22;;;;;;;;;;5096033;28;20093;-74
2021/11/30 19:40:42;;;;;;;3.95;1.90;;;;;;;;;;5095961;28;20020;-74
2021/11/30 19:43:13;;;;;;;2.80;1.85;;;;;;;;;;5096403;28;20055;-72
2021/11/30 19:45:40;;;;;;;3.47;2.15;;;;;;;;;;5096204;28;20054;-72
2021/11/30 19:48:07;;;;;;;3.00;1.63;;;;;;;;;;5096134;28;20494;-72
2021/11/30 19:50:33;;;;;;;3.65;2.10;;;;;;;;;;5094419;28;20119;-72
2021/11/30 19:53:00;;;;;;;4.07;1.92;;;;;;;;;;5094433;28;20479;-73
2021/11/30 19:55:26;;;;;;;3.42;2.00;;;;;;;;;;5094354;28;20368;-73
2021/11/30 19:57:52;;;;;;;3.80;1.90;;;;;;;;;;5095846;28;20095;-72
2021/11/30 20:00:23;;;;;;;3.33;1.60;;;;;;;;;;5095794;28;20112;-72
2021/11/30 20:05:41;;;;;;;4.80;2.45;;;;;;;;;;5095425;28;20542;-72
2021/11/30 20:08:07;;;;;;;4.57;2.75;;;;;;;;;;5077236;28;20116;-73
2021/11/30 20:10:34;;;;;;;2.80;1.70;;;;;;;;;;5077179;28;20078;-72
2021/11/30 20:13:00;;;;;;;3.53;2.13;;;;;;;;;;5077033;28;20028;-72
2021/11/30 20:17:54;;;;;;;2.58;1.50;;;;;;;;;;5095155;28;20028;-72
2021/11/30 20:20:21;;;;;;;5.15;2.55;;;;;;;;;;5077028;28;20048;-72
2021/11/30 20:22:47;;;;;;;2.95;1.55;;;;;;;;;;5076837;28;20035;-73
2021/11/30 20:25:13;;;;;;;2.83;1.63;;;;;;;;;;5095220;28;20032;-72
2021/11/30 20:27:39;;;;;;;2.30;1.50;;;;;;;;;;5094911;28;20021;-73
2021/11/30 20:30:06;;;;;;;2.17;1.52;;;;;;;;;;5076847;28;20119;-73
2021/11/30 20:32:32;;;;;;;2.17;1.20;;;;;;;;;;5076725;28;20020;-73
2021/11/30 20:35:15;;;;;;;2.58;1.48;;;;;;;;;;5076685;28;20020;-73
2021/11/30 20:40:27;;;;;;;2.47;1.73;;;;;;;;;;5095158;28;20031;-73
2021/11/30 20:42:53;;;;;;;2.25;1.40;;;;;;;;;;5076349;28;20165;-73
2021/11/30 20:45:19;;;;;;;2.22;1.33;;;;;;;;;;5076460;28;20490;-73
2021/11/30 20:47:45;;;;;;;2.92;1.80;;;;;;;;;;5076462;28;20114;-73
2021/11/30 20:50:13;;;;;;;3.65;2.00;;;;;;;;;;5076462;28;20024;-73
2021/11/30 20:52:40;;;;;;;4.20;2.30;;;;;;;;;;5076280;28;20472;-73
2021/11/30 20:55:06;;;;;;;3.72;2.28;;;;;;;;;;5076133;28;20032;-73
2021/11/30 20:57:35;;;;;;;3.80;2.10;;;;;;;;;;5071538;28;20035;-73
2021/11/30 21:00:01;;;;;;;3.83;1.88;;;;;;;;;;5055836;28;20020;-73
2021/11/30 21:02:30;;;;;;;3.42;2.10;;;;;;;;;;5055471;28;20028;-72
2021/11/30 21:04:59;;;;;;;3.47;1.83;;;;;;;;;;5089191;28;20400;-73
2021/11/30 21:07:27;;;;;;;3.03;1.83;;;;;;;;;;5076117;28;20024;-72
2021/11/30 21:09:54;;;;;;;4.00;1.90;;;;;;;;;;5076102;28;20093;-72
2021/11/30 21:12:20;;;;;;;3.50;2.00;;;;;;;;;;5094060;28;20016;-72
2021/11/30 21:14:47;;;;;;;3.28;1.75;;;;;;;;;;5093788;28;20035;-73
2021/11/30 21:17:13;;;;;;;2.92;1.83;;;;;;;;;;5076030;28;20020;-73
2021/11/30 21:19:39;;;;;;;2.67;1.63;;;;;;;;;;5075967;28;20028;-73
2021/11/30 21:22:06;;;;;;;2.60;1.50;;;;;;;;;;5075809;28;20017;-73
2021/11/30 21:24:36;;;;;;;2.72;1.55;;;;;;;;;;5093904;28;20492;-73
2021/11/30 21:27:04;;;;;;;2.47;1.65;;;;;;;;;;5092790;28;20109;-73
2021/11/30 21:29:30;;;;;;;2.40;1.42;;;;;;;;;;5112599;28;20030;-73
2021/11/30 21:31:57;;;;;;;3.55;1.60;;;;;;;;;;5114184;28;20035;-73
2021/11/30 21:34:23;;;;;;;2.58;1.40;;;;;;;;;;5095805;28;20058;-73
2021/11/30 21:36:51;;;;;;;2.47;1.40;;;;;;;;;;5113952;28;20459;-73
2021/11/30 21:39:17;;;;;;;2.45;1.50;;;;;;;;;;5095815;28;20051;-73
2021/11/30 21:41:44;;;;;;;2.28;1.30;;;;;;;;;;5114043;28;20066;-73
2021/11/30 21:44:10;;;;;;;2.38;1.38;;;;;;;;;;5114017;28;20063;-73
2021/11/30 21:46:36;;;;;;;2.42;1.38;;;;;;;;;;5113915;28;20035;-73
2021/11/30 21:49:04;;;;;;;1.90;1.10;;;;;;;;;;5113928;28;20026;-73
2021/11/30 21:51:30;;;;;;;2.40;1.45;;;;;;;;;;5113926;28;20026;-73
2021/11/30 21:54:01;;;;;;;5.40;2.70;;;;;;;;;;5096041;28;20050;-73
2021/11/30 21:56:29;;;;;;;5.47;2.50;;;;;;;;;;5095555;28;20451;-73
2021/11/30 21:58:55;;;;;;;5.50;2.35;;;;;;;;;;5113760;28;20413;-73
2021/11/30 22:01:21;;;;;;;2.75;1.65;;;;;;;;;;5096112;28;20080;-73
2021/11/30 22:03:50;;;;;;;2.67;1.50;;;;;;;;;;5095513;28;20054;-73
2021/11/30 22:06:16;;;;;;;2.97;1.50;;;;;;;;;;5095482;28;20035;-72
2021/11/30 22:08:42;;;;;;;3.03;1.40;;;;;;;;;;5113642;28;20019;-73
2021/11/30 22:11:08;;;;;;;3.80;2.10;;;;;;;;;;5095433;28;20483;-72
2021/11/30 22:13:34;;;;;;;2.50;1.13;;;;;;;;;;5095480;28;20031;-73
2021/11/30 22:16:01;;;;;;;1.48;1.02;;;;;;;;;;5095373;28;20422;-73
2021/11/30 22:18:27;;;;;;;1.92;1.10;;;;;;;;;;5095450;28;20055;-72
2021/11/30 22:20:55;;;;;;;2.75;1.38;;;;;;;;;;5113472;28;20491;-73
2021/11/30 22:23:21;;;;;;;2.03;1.00;;;;;;;;;;5113377;28;20028;-73
2021/11/30 22:25:48;;;;;;;1.88;1.17;;;;;;;;;;5097387;28;20080;-73
2021/11/30 22:28:14;;;;;;;1.83;1.00;;;;;;;;;;5099273;28;20031;-73
2021/11/30 22:30:41;;;;;;;2.33;1.02;;;;;;;;;;5099240;28;20027;-73
2021/11/30 22:33:07;;;;;;;3.28;0.98;;;;;;;;;;5099373;28;20028;-73
2021/11/30 22:35:33;;;;;;;2.03;1.00;;;;;;;;;;5099338;28;20032;-73
2021/11/30 22:37:59;;;;;;;1.70;1.10;;;;;;;;;;5099295;28;20023;-72
2021/11/30 22:40:25;;;;;;;1.35;0.98;;;;;;;;;;5099114;28;20399;-72
2021/11/30 22:42:52;;;;;;;1.85;1.02;;;;;;;;;;5117363;28;20023;-72
2021/11/30 22:45:20;;;;;;;2.13;1.23;;;;;;;;;;5099074;28;20045;-73
2021/11/30 22:47:47;;;;;;;2.40;1.10;;;;;;;;;;5099012;28;20031;-72
2021/11/30 22:50:13;;;;;;;1.73;1.00;;;;;;;;;;5117132;28;20038;-72
2021/11/30 22:52:40;;;;;;;2.20;1.10;;;;;;;;;;5098893;28;20509;-72
2021/11/30 22:55:06;;;;;;;1.90;1.10;;;;;;;;;;5099011;28;20026;-72
2021/11/30 22:57:33;;;;;;;1.55;1.00;;;;;;;;;;5117394;28;20386;-72
2021/11/30 22:59:59;;;;;;;2.08;1.15;;;;;;;;;;5098899;28;20072;-73
2021/11/30 23:02:26;;;;;;;1.92;1.27;;;;;;;;;;5117088;28;20077;-72
2021/11/30 23:04:52;;;;;;;2.97;1.20;;;;;;;;;;5116713;28;20480;-72
2021/11/30 23:07:18;;;;;;;2.05;1.17;;;;;;;;;;5098689;28;20031;-72
2021/11/30 23:09:45;;;;;;;2.05;1.25;;;;;;;;;;5098654;28;20486;-72
2021/11/30 23:12:11;;;;;;;2.15;1.10;;;;;;;;;;5098672;28;20433;-72
2021/11/30 23:14:38;;;;;;;2.80;1.20;;;;;;;;;;5116723;28;20032;-72
2021/11/30 23:17:08;;;;;;;2.70;1.38;;;;;;;;;;5098509;28;20020;-72
2021/11/30 23:19:34;;;;;;;1.98;1.15;;;;;;;;;;5098448;28;20035;-72
2021/11/30 23:22:03;;;;;;;2.00;1.20;;;;;;;;;;5081635;28;20016;-72
2021/11/30 23:24:37;;;;;;;1.83;1.20;;;;;;;;;;5098396;28;20039;-73
2021/11/30 23:27:04;;;;;;;1.77;1.00;;;;;;;;;;5098320;28;20110;-73
2021/11/30 23:29:30;;;;;;;2.03;1.10;;;;;;;;;;5098275;28;20028;-73
2021/11/30 23:31:56;;;;;;;2.20;0.95;;;;;;;;;;5098263;28;20030;-73
2021/11/30 23:34:22;;;;;;;1.95;0.90;;;;;;;;;;5098192;28;20027;-72
2021/11/30 23:36:48;;;;;;;1.95;1.10;;;;;;;;;;5097558;28;20020;-72
2021/11/30 23:39:14;;;;;;;2.08;0.90;;;;;;;;;;5098087;28;20054;-72
2021/11/30 23:41:40;;;;;;;1.38;0.70;;;;;;;;;;5116624;28;20411;-73
2021/11/30 23:44:08;;;;;;;1.50;0.70;;;;;;;;;;5097939;28;20131;-72
2021/11/30 23:46:34;;;;;;;1.70;1.10;;;;;;;;;;5097850;28;20023;-72
2021/11/30 23:49:01;;;;;;;1.58;0.88;;;;;;;;;;5116150;28;20118;-72
2021/11/30 23:51:27;;;;;;;1.98;1.00;;;;;;;;;;5097601;28;20059;-73
2021/11/30 23:53:53;;;;;;;2.30;1.02;;;;;;;;;;5116027;28;20027;-73
2021/11/30 23:56:19;;;;;;;1.50;0.80;;;;;;;;;;5097780;28;20027;-72
2021/11/30 23:58:45;;;;;;;1.50;0.95;;;;;;;;;;5080763;28;20463;-73
